Time;durP1;ratioP1;P1;durP2;ratioP2;P2;SDS_P1;SDS_P2;PMS_P1;PMS_P2;Temp;Humidity;BMP_temperature;BMP_pressure;BME280_temperature;BME280_humidity;BME280_pressure;Samples;Min_cycle;Max_cycle;Signal;HPM_P1;HPM_P2
2023/03/07 00:00:42;;;;;;;1999.90;999.90;;;4.30;99.90;;;;;;5034608;28;20971;-68
2023/03/07 00:03:11;;;;;;;1999.90;999.90;;;4.30;99.90;;;;;;5033683;28;20924;-68
2023/03/07 00:05:37;;;;;;;1999.90;999.90;;;4.30;99.90;;;;;;5034011;28;20780;-68
2023/03/07 00:08:02;;;;;;;1999.90;999.90;;;4.30;99.90;;;;;;5033861;28;20407;-69
2023/03/07 00:10:28;;;;;;;1999.90;999.90;;;4.40;99.90;;;;;;5033732;28;20204;-68
2023/03/07 00:12:53;;;;;;;1999.90;999.90;;;4.40;99.90;;;;;;5034904;28;20180;-68
2023/03/07 00:15:19;;;;;;;1999.90;999.90;;;4.40;99.90;;;;;;5034017;28;20184;-68
2023/03/07 00:17:45;;;;;;;1999.90;999.90;;;4.40;99.90;;;;;;5033684;28;20171;-68
2023/03/07 00:20:13;;;;;;;1999.90;999.90;;;4.40;99.90;;;;;;5034003;28;20199;-68
2023/03/07 00:22:39;;;;;;;1999.90;999.90;;;4.40;99.90;;;;;;5033557;28;20493;-68
2023/03/07 00:25:05;;;;;;;1999.90;999.90;;;4.40;99.90;;;;;;5033521;28;20403;-68
2023/03/07 00:27:31;;;;;;;1999.90;999.90;;;4.40;99.90;;;;;;5033393;28;20172;-68
2023/03/07 00:29:57;;;;;;;1999.90;999.90;;;4.30;99.90;;;;;;5033181;28;20929;-69
2023/03/07 00:32:23;;;;;;;1999.90;999.90;;;4.40;99.90;;;;;;5033307;28;20435;-68
2023/03/07 00:34:49;;;;;;;1999.90;999.90;;;4.40;99.90;;;;;;5033601;28;20802;-68
2023/03/07 00:37:15;;;;;;;1999.90;999.90;;;4.50;99.90;;;;;;5033229;28;20400;-68
2023/03/07 00:39:41;;;;;;;1999.90;999.90;;;4.30;99.90;;;;;;5033259;28;20681;-69
2023/03/07 00:42:07;;;;;;;1999.90;999.90;;;4.50;99.90;;;;;;5033180;28;20567;-68
2023/03/07 00:44:33;;;;;;;1999.90;999.90;;;4.50;99.90;;;;;;5033334;28;20506;-68
2023/03/07 00:46:59;;;;;;;1999.90;999.90;;;4.50;99.90;;;;;;5034029;28;20395;-69
2023/03/07 00:49:25;;;;;;;1999.90;999.90;;;4.50;99.90;;;;;;5037829;28;20434;-68
2023/03/07 00:51:51;;;;;;;1999.90;999.90;;;4.50;99.90;;;;;;5038719;28;20591;-68
2023/03/07 00:54:16;;;;;;;1999.90;999.90;;;4.50;99.90;;;;;;5039201;28;20402;-68
2023/03/07 00:56:42;;;;;;;1999.90;999.90;;;4.50;99.90;;;;;;5038937;28;20200;-68
2023/03/07 00:59:07;;;;;;;1999.90;999.90;;;4.40;99.90;;;;;;5038838;28;20168;-68
2023/03/07 01:01:33;;;;;;;1999.90;999.90;;;4.40;99.90;;;;;;5038414;28;20193;-68
2023/03/07 01:03:59;;;;;;;1999.90;999.90;;;4.40;99.90;;;;;;5037811;28;20252;-68
2023/03/07 01:06:27;;;;;;;1999.90;999.90;;;4.40;99.90;;;;;;5038789;28;20533;-67
2023/03/07 01:08:56;;;;;;;1999.90;999.90;;;4.40;99.90;;;;;;5038772;28;20172;-68
2023/03/07 01:11:21;;;;;;;1999.90;999.90;;;4.40;99.90;;;;;;5037244;28;20470;-68
2023/03/07 01:13:47;;;;;;;1999.90;999.90;;;4.40;99.90;;;;;;5038247;28;20179;-68
2023/03/07 01:16:16;;;;;;;1999.90;999.90;;;4.30;99.90;;;;;;5037530;28;20207;-68
2023/03/07 01:18:43;;;;;;;1999.90;999.90;;;4.40;99.90;;;;;;5037770;28;20175;-68
2023/03/07 01:21:18;;;;;;;1999.90;999.90;;;4.30;99.90;;;;;;5037141;28;20462;-68
2023/03/07 01:23:45;;;;;;;1999.90;999.90;;;4.40;99.90;;;;;;5037276;28;20496;-68
2023/03/07 01:26:15;;;;;;;1999.90;999.90;;;4.30;99.90;;;;;;5036633;28;20795;-68
2023/03/07 01:28:41;;;;;;;1999.90;999.90;;;4.30;99.90;;;;;;5036281;28;20187;-68
2023/03/07 01:31:07;;;;;;;1999.90;999.90;;;4.30;99.90;;;;;;5036103;28;20510;-68
2023/03/07 01:33:33;;;;;;;1999.90;999.90;;;4.20;99.90;;;;;;5036632;28;20403;-68
2023/03/07 01:35:58;;;;;;;1999.90;999.90;;;4.20;99.90;;;;;;5036031;28;20459;-68
2023/03/07 01:38:24;;;;;;;1999.90;999.90;;;4.30;99.90;;;;;;5036947;28;20191;-68
2023/03/07 01:40:49;;;;;;;1999.90;999.90;;;4.20;99.90;;;;;;5037037;28;20245;-68
2023/03/07 01:43:26;;;;;;;1999.90;999.90;;;4.20;99.90;;;;;;5032917;28;20164;-69
2023/03/07 01:46:19;;;;;;;1999.90;999.90;;;4.20;99.90;;;;;;5032933;28;20666;-69
2023/03/07 01:48:49;;;;;;;1999.90;999.90;;;4.20;99.90;;;;;;5032267;28;20391;-69
2023/03/07 01:51:16;;;;;;;1999.90;999.90;;;4.20;99.90;;;;;;5031989;28;20434;-69
2023/03/07 01:53:42;;;;;;;1999.90;999.90;;;4.20;99.90;;;;;;5031606;28;20406;-69
2023/03/07 01:56:09;;;;;;;1999.90;999.90;;;4.20;99.90;;;;;;5031647;28;20553;-69
2023/03/07 01:58:37;;;;;;;1999.90;999.90;;;4.20;99.90;;;;;;5031773;28;20435;-69
2023/03/07 02:01:07;;;;;;;1999.90;999.90;;;4.20;99.90;;;;;;5031701;28;20434;-69
2023/03/07 02:03:40;;;;;;;1999.90;999.90;;;4.20;99.90;;;;;;5031563;28;20403;-69
2023/03/07 02:06:10;;;;;;;1999.90;999.90;;;4.20;99.90;;;;;;5031686;28;20407;-69
2023/03/07 02:08:37;;;;;;;1999.90;999.90;;;4.20;99.90;;;;;;5035181;28;20407;-69
2023/03/07 02:11:03;;;;;;;1999.90;999.90;;;4.20;99.90;;;;;;5032017;28;20450;-68
2023/03/07 02:13:29;;;;;;;1999.90;999.90;;;4.20;99.90;;;;;;5031795;28;20184;-68
2023/03/07 02:15:58;;;;;;;1999.90;999.90;;;4.20;99.90;;;;;;5032247;28;20458;-69
2023/03/07 02:18:27;;;;;;;1999.90;999.90;;;4.20;99.90;;;;;;5032470;28;20192;-68
2023/03/07 02:21:20;;;;;;;1999.90;999.90;;;4.20;99.90;;;;;;5032258;28;20459;-68
2023/03/07 02:23:49;;;;;;;1999.90;999.90;;;4.30;99.90;;;;;;5031864;28;20829;-69
2023/03/07 02:26:29;;;;;;;1999.90;999.90;;;4.30;99.90;;;;;;5031795;28;20395;-69
2023/03/07 02:28:56;;;;;;;1999.90;999.90;;;4.30;99.90;;;;;;5031853;28;20407;-68
2023/03/07 02:31:22;;;;;;;1999.90;999.90;;;4.40;99.90;;;;;;5031595;28;20427;-67
2023/03/07 02:33:48;;;;;;;1999.90;999.90;;;4.40;99.90;;;;;;5031730;28;20440;-68
2023/03/07 02:36:19;;;;;;;1999.90;999.90;;;4.40;99.90;;;;;;5031906;28;20529;-68
2023/03/07 02:38:47;;;;;;;1999.90;999.90;;;4.50;99.90;;;;;;5035564;28;20958;-68
2023/03/07 02:41:17;;;;;;;1999.90;999.90;;;4.50;99.90;;;;;;5039193;28;20419;-68
2023/03/07 02:43:43;;;;;;;1999.90;999.90;;;4.50;99.90;;;;;;5040754;28;20403;-68
2023/03/07 02:46:08;;;;;;;1999.90;999.90;;;4.60;99.90;;;;;;5041207;28;20449;-68
2023/03/07 02:48:34;;;;;;;1999.90;999.90;;;4.60;99.90;;;;;;5040957;28;20176;-68
2023/03/07 02:51:00;;;;;;;1999.90;999.90;;;4.60;99.90;;;;;;5041290;28;20692;-68
2023/03/07 02:53:25;;;;;;;1999.90;999.90;;;4.60;99.90;;;;;;5040324;28;20578;-68
2023/03/07 02:55:51;;;;;;;1999.90;999.90;;;4.60;99.90;;;;;;5040940;28;20200;-68
2023/03/07 02:58:16;;;;;;;1999.90;999.90;;;4.60;99.90;;;;;;5040832;28;20172;-68
2023/03/07 03:00:42;;;;;;;1999.90;999.90;;;4.60;99.90;;;;;;5040557;28;20203;-67
2023/03/07 03:03:07;;;;;;;1999.90;999.90;;;4.60;99.90;;;;;;5040749;28;20664;-67
2023/03/07 03:05:33;;;;;;;1999.90;999.90;;;4.60;99.90;;;;;;5041106;28;20225;-68
2023/03/07 03:07:59;;;;;;;1999.90;999.90;;;4.50;99.90;;;;;;5040404;28;20176;-68
2023/03/07 03:10:24;;;;;;;1999.90;999.90;;;4.60;99.90;;;;;;5040982;28;20294;-68
2023/03/07 03:12:50;;;;;;;1999.90;999.90;;;4.50;99.90;;;;;;5039997;28;20203;-68
2023/03/07 03:15:15;;;;;;;1999.90;999.90;;;4.50;99.90;;;;;;5039574;28;20192;-68
2023/03/07 03:17:41;;;;;;;1999.90;999.90;;;4.50;99.90;;;;;;5039379;28;20186;-68
2023/03/07 03:20:11;;;;;;;1999.90;999.90;;;4.50;99.90;;;;;;5039375;28;20274;-68
2023/03/07 03:22:41;;;;;;;1999.90;999.90;;;4.50;99.90;;;;;;5039189;28;20191;-68
2023/03/07 03:25:10;;;;;;;1999.90;999.90;;;4.50;99.90;;;;;;5039004;28;20411;-68
2023/03/07 03:27:36;;;;;;;1999.90;999.90;;;4.50;99.90;;;;;;5039024;28;20406;-68
2023/03/07 03:30:04;;;;;;;1999.90;999.90;;;4.50;99.90;;;;;;5039233;28;20427;-68
2023/03/07 03:32:30;;;;;;;1999.90;999.90;;;4.40;99.90;;;;;;5038660;28;20407;-68
2023/03/07 03:34:56;;;;;;;1999.90;999.90;;;4.40;99.90;;;;;;5038559;28;20196;-68
2023/03/07 03:37:22;;;;;;;1999.90;999.90;;;4.40;99.90;;;;;;5038385;28;20426;-68
2023/03/07 03:39:47;;;;;;;1999.90;999.90;;;4.30;99.90;;;;;;5038748;28;20164;-68
2023/03/07 03:42:13;;;;;;;1999.90;999.90;;;4.40;99.90;;;;;;5034059;28;20168;-68
2023/03/07 03:44:38;;;;;;;1999.90;999.90;;;4.40;99.90;;;;;;5034354;28;20164;-68
2023/03/07 03:47:04;;;;;;;1999.90;999.90;;;4.40;99.90;;;;;;5033888;28;20227;-68
2023/03/07 03:49:30;;;;;;;1999.90;999.90;;;4.40;99.90;;;;;;5034244;28;20168;-68
2023/03/07 03:51:56;;;;;;;1999.90;999.90;;;4.40;99.90;;;;;;5034451;28;20188;-68
2023/03/07 03:54:21;;;;;;;1999.90;999.90;;;4.40;99.90;;;;;;5036732;28;20399;-69
2023/03/07 03:56:47;;;;;;;1999.90;999.90;;;4.30;99.90;;;;;;5033682;28;20203;-69
2023/03/07 03:59:12;;;;;;;1999.90;999.90;;;4.40;99.90;;;;;;5033744;28;20537;-69
2023/03/07 04:01:38;;;;;;;1999.90;999.90;;;4.30;99.90;;;;;;5033415;28;20192;-69
2023/03/07 04:04:03;;;;;;;1999.90;999.90;;;4.40;99.90;;;;;;5033653;28;20176;-69
2023/03/07 04:06:32;;;;;;;1999.90;999.90;;;4.40;99.90;;;;;;5035868;28;20173;-68
2023/03/07 04:08:59;;;;;;;1999.90;999.90;;;4.40;99.90;;;;;;5037773;28;20184;-68
2023/03/07 04:11:24;;;;;;;1999.90;999.90;;;4.40;99.90;;;;;;5037310;28;20580;-68
2023/03/07 04:13:50;;;;;;;1999.90;999.90;;;4.40;99.90;;;;;;5037542;28;20414;-68
2023/03/07 04:16:16;;;;;;;1999.90;999.90;;;4.40;99.90;;;;;;5037071;28;20447;-68
2023/03/07 04:18:42;;;;;;;1999.90;999.90;;;4.30;99.90;;;;;;5037380;28;20776;-68
2023/03/07 04:21:09;;;;;;;1999.90;999.90;;;4.30;99.90;;;;;;5036256;28;20635;-68
2023/03/07 04:23:36;;;;;;;1999.90;999.90;;;4.30;99.90;;;;;;5033075;28;20647;-68
2023/03/07 04:26:04;;;;;;;1999.90;999.90;;;4.40;99.90;;;;;;5033166;28;20417;-68
2023/03/07 04:28:44;;;;;;;1999.90;999.90;;;4.40;99.90;;;;;;5033195;28;20858;-68
2023/03/07 04:31:12;;;;;;;1999.90;999.90;;;4.30;99.90;;;;;;5033047;28;20454;-69
2023/03/07 04:33:37;;;;;;;1999.90;999.90;;;4.40;99.90;;;;;;5032886;28;20409;-69
2023/03/07 04:36:04;;;;;;;1999.90;999.90;;;4.40;99.90;;;;;;5032857;28;20454;-69
2023/03/07 04:38:29;;;;;;;1999.90;999.90;;;4.40;99.90;;;;;;5033074;28;20199;-68
2023/03/07 04:40:55;;;;;;;1999.90;999.90;;;4.40;99.90;;;;;;5032831;28;20462;-69
2023/03/07 04:43:21;;;;;;;1999.90;999.90;;;4.40;99.90;;;;;;5032689;28;20171;-70
2023/03/07 04:45:46;;;;;;;1999.90;999.90;;;4.40;99.90;;;;;;5033029;28;20176;-69
2023/03/07 04:48:12;;;;;;;1999.90;999.90;;;4.40;99.90;;;;;;5032845;28;20168;-69
2023/03/07 04:50:37;;;;;;;1999.90;999.90;;;4.30;99.90;;;;;;5032905;28;20193;-69
2023/03/07 04:53:03;;;;;;;1999.90;999.90;;;4.30;99.90;;;;;;5032553;28;20176;-69
2023/03/07 04:55:28;;;;;;;1999.90;999.90;;;4.30;99.90;;;;;;5032576;28;20195;-69
2023/03/07 04:57:56;;;;;;;1999.90;999.90;;;4.30;99.90;;;;;;5032666;28;20176;-69
2023/03/07 05:00:22;;;;;;;1999.90;999.90;;;4.30;99.90;;;;;;5032200;28;20269;-68
2023/03/07 05:02:48;;;;;;;1999.90;999.90;;;4.30;99.90;;;;;;5032862;28;20399;-68
2023/03/07 05:05:15;;;;;;;1999.90;999.90;;;4.30;99.90;;;;;;5032841;28;20434;-68
2023/03/07 05:07:41;;;;;;;1999.90;999.90;;;4.30;99.90;;;;;;5032549;28;20410;-68
2023/03/07 05:10:07;;;;;;;1999.90;999.90;;;4.20;99.90;;;;;;5032567;28;20423;-68
2023/03/07 05:12:33;;;;;;;1999.90;999.90;;;4.20;99.90;;;;;;5032411;28;20772;-68
2023/03/07 05:14:59;;;;;;;1999.90;999.90;;;4.20;99.90;;;;;;5032591;28;20524;-68
2023/03/07 05:17:25;;;;;;;1999.90;999.90;;;4.20;99.90;;;;;;5032429;28;20176;-68
2023/03/07 05:19:53;;;;;;;1999.90;999.90;;;4.10;99.90;;;;;;5032551;28;20457;-68
2023/03/07 05:22:19;;;;;;;1999.90;999.90;;;4.20;99.90;;;;;;5032535;28;20190;-69
2023/03/07 05:24:44;;;;;;;1999.90;999.90;;;4.20;99.90;;;;;;5032377;28;20411;-69
2023/03/07 05:27:10;;;;;;;1999.90;999.90;;;4.20;99.90;;;;;;5032391;28;20164;-69
2023/03/07 05:29:35;;;;;;;1999.90;999.90;;;4.10;99.90;;;;;;5032382;28;20199;-68
2023/03/07 05:32:01;;;;;;;1999.90;999.90;;;4.10;99.90;;;;;;5032197;28;20195;-68
2023/03/07 05:34:27;;;;;;;1999.90;999.90;;;4.10;99.90;;;;;;5032594;28;20172;-68
2023/03/07 05:36:52;;;;;;;1999.90;999.90;;;4.20;99.90;;;;;;5032339;28;20212;-68
2023/03/07 05:39:18;;;;;;;1999.90;999.90;;;4.10;99.90;;;;;;5033160;28;20179;-68
2023/03/07 05:41:43;;;;;;;1999.90;999.90;;;4.10;99.90;;;;;;5032990;28;20689;-68
2023/03/07 05:44:09;;;;;;;1999.90;999.90;;;4.10;99.90;;;;;;5033443;28;20169;-68
2023/03/07 05:46:34;;;;;;;1999.90;999.90;;;4.10;99.90;;;;;;5033489;28;20176;-68
2023/03/07 05:49:00;;;;;;;1999.90;999.90;;;4.20;99.90;;;;;;5032550;28;20176;-68
2023/03/07 05:51:26;;;;;;;1999.90;999.90;;;4.20;99.90;;;;;;5032010;28;20708;-68
2023/03/07 05:53:51;;;;;;;1999.90;999.90;;;4.20;99.90;;;;;;5032021;28;20172;-68
2023/03/07 05:56:17;;;;;;;1999.90;999.90;;;4.20;99.90;;;;;;5031916;28;20220;-67
2023/03/07 05:58:42;;;;;;;1999.90;999.90;;;4.20;99.90;;;;;;5032005;28;20168;-68
2023/03/07 06:01:08;;;;;;;1999.90;999.90;;;4.20;99.90;;;;;;5032226;28;20219;-68
2023/03/07 06:03:34;;;;;;;1999.90;999.90;;;4.20;99.90;;;;;;5032077;28;20230;-69
2023/03/07 06:05:59;;;;;;;1999.90;999.90;;;4.30;99.90;;;;;;5032025;28;20320;-68
2023/03/07 06:08:25;;;;;;;1999.90;999.90;;;4.20;99.90;;;;;;5032128;28;20199;-68
2023/03/07 06:10:51;;;;;;;1999.90;999.90;;;4.30;99.90;;;;;;5033134;28;20203;-69
2023/03/07 06:13:23;;;;;;;1999.90;999.90;;;4.30;99.90;;;;;;5035899;28;20229;-68
2023/03/07 06:15:49;;;;;;;1999.90;999.90;;;4.20;99.90;;;;;;5036084;28;20455;-68
2023/03/07 06:18:15;;;;;;;1999.90;999.90;;;4.30;99.90;;;;;;5035897;28;20399;-68
2023/03/07 06:20:41;;;;;;;1999.90;999.90;;;4.30;99.90;;;;;;5035839;28;20223;-68
2023/03/07 06:23:06;;;;;;;1999.90;999.90;;;4.30;99.90;;;;;;5038266;28;20168;-68
2023/03/07 06:25:32;;;;;;;1999.90;999.90;;;4.30;99.90;;;;;;5038012;28;20204;-68
2023/03/07 06:27:59;;;;;;;1999.90;999.90;;;4.30;99.90;;;;;;5039701;28;20169;-68
2023/03/07 06:30:26;;;;;;;1999.90;999.90;;;4.30;99.90;;;;;;5040050;28;20234;-67
2023/03/07 06:32:51;;;;;;;1999.90;999.90;;;4.30;99.90;;;;;;5039397;28;20410;-68
2023/03/07 06:35:17;;;;;;;1999.90;999.90;;;4.30;99.90;;;;;;5038887;28;20524;-68
2023/03/07 06:37:42;;;;;;;1999.90;999.90;;;4.40;99.90;;;;;;5039916;28;20160;-68
2023/03/07 06:40:09;;;;;;;1999.90;999.90;;;4.40;99.90;;;;;;5039684;28;20189;-68
2023/03/07 06:42:35;;;;;;;1999.90;999.90;;;4.50;99.90;;;;;;5039641;28;20183;-68
2023/03/07 06:45:01;;;;;;;1999.90;999.90;;;4.40;99.90;;;;;;5039607;28;20403;-68
2023/03/07 06:47:27;;;;;;;1999.90;999.90;;;4.50;99.90;;;;;;5040281;28;20445;-68
2023/03/07 06:49:52;;;;;;;1999.90;999.90;;;4.50;99.90;;;;;;5040257;28;20551;-68
2023/03/07 06:52:18;;;;;;;1999.90;999.90;;;4.60;99.90;;;;;;5040638;28;20172;-68
2023/03/07 06:54:44;;;;;;;1999.90;999.90;;;4.60;99.90;;;;;;5039601;28;20199;-68
2023/03/07 06:57:09;;;;;;;1999.90;999.90;;;4.70;99.90;;;;;;5039658;28;20403;-68
2023/03/07 06:59:35;;;;;;;1999.90;999.90;;;4.70;99.90;;;;;;5040429;28;20239;-67
2023/03/07 07:02:02;;;;;;;1999.90;999.90;;;4.70;99.90;;;;;;5040116;28;20197;-68
2023/03/07 07:04:28;;;;;;;1999.90;999.90;;;4.70;99.90;;;;;;5035386;28;20172;-68
2023/03/07 07:06:53;;;;;;;1999.90;999.90;;;4.70;99.90;;;;;;5034532;28;20493;-69
2023/03/07 07:09:19;;;;;;;1999.90;999.90;;;4.80;99.90;;;;;;5034628;28;20498;-69
2023/03/07 07:11:44;;;;;;;1999.90;999.90;;;4.80;99.90;;;;;;5034229;28;20631;-68
2023/03/07 07:14:10;;;;;;;1999.90;999.90;;;4.80;99.90;;;;;;5034768;28;20198;-69
2023/03/07 07:16:36;;;;;;;1999.90;999.90;;;4.80;99.90;;;;;;5034418;28;20627;-69
2023/03/07 07:19:02;;;;;;;1999.90;999.90;;;4.90;99.90;;;;;;5034898;28;20171;-68
2023/03/07 07:21:27;;;;;;;1999.90;999.90;;;4.90;99.90;;;;;;5035674;28;20188;-68
2023/03/07 07:23:56;;;;;;;1999.90;999.90;;;4.90;99.90;;;;;;5035926;28;20497;-69
2023/03/07 07:26:22;;;;;;;1999.90;999.90;;;4.90;99.90;;;;;;5036067;28;20172;-69
2023/03/07 07:28:47;;;;;;;1999.90;999.90;;;4.90;99.90;;;;;;5034632;28;20768;-69
2023/03/07 07:31:13;;;;;;;1999.90;999.90;;;5.00;99.90;;;;;;5034169;28;20427;-69
2023/03/07 07:33:38;;;;;;;1999.90;999.90;;;5.00;99.90;;;;;;5034258;28;20176;-68
2023/03/07 07:36:06;;;;;;;1999.90;999.90;;;5.00;99.90;;;;;;5034126;28;20821;-68
2023/03/07 07:38:31;;;;;;;1999.90;999.90;;;5.00;99.90;;;;;;5034116;28;20251;-68
2023/03/07 07:40:57;;;;;;;1999.90;999.90;;;5.00;99.90;;;;;;5034030;28;20454;-69
2023/03/07 07:43:22;;;;;;;1999.90;999.90;;;5.00;99.90;;;;;;5033905;28;20789;-69
2023/03/07 07:45:48;;;;;;;1999.90;999.90;;;5.00;99.90;;;;;;5034443;28;20168;-69
2023/03/07 07:48:13;;;;;;;1999.90;999.90;;;5.00;99.90;;;;;;5033921;28;20605;-69
2023/03/07 07:50:39;;;;;;;1999.90;999.90;;;5.00;99.90;;;;;;5033897;28;20203;-69
2023/03/07 07:53:05;;;;;;;1999.90;999.90;;;4.90;99.90;;;;;;5033727;28;20255;-69
2023/03/07 07:55:30;;;;;;;1999.90;999.90;;;4.90;99.90;;;;;;5033787;28;20210;-69
2023/03/07 07:57:56;;;;;;;1999.90;999.90;;;4.90;99.90;;;;;;5033719;28;20169;-69
2023/03/07 08:00:21;;;;;;;1999.90;999.90;;;4.90;99.90;;;;;;5033652;28;20185;-69
2023/03/07 08:02:50;;;;;;;1999.90;999.90;;;4.90;99.90;;;;;;5022026;28;20177;-69
2023/03/07 08:05:18;;;;;;;1999.90;999.90;;;4.90;99.90;;;;;;5013874;28;20169;-69
2023/03/07 08:07:43;;;;;;;1999.90;999.90;;;4.90;99.90;;;;;;5013673;28;20416;-69
2023/03/07 08:10:14;;;;;;;1999.90;999.90;;;4.90;99.90;;;;;;5013539;28;20430;-69
2023/03/07 08:12:52;;;;;;;1999.90;999.90;;;4.90;99.90;;;;;;5013750;28;20227;-69
2023/03/07 08:15:20;;;;;;;1999.90;999.90;;;4.90;99.90;;;;;;5013587;28;21231;-69
2023/03/07 08:17:50;;;;;;;1999.90;999.90;;;4.90;99.90;;;;;;5013479;28;20392;-69
2023/03/07 08:20:16;;;;;;;1999.90;999.90;;;4.90;99.90;;;;;;5013464;28;20432;-69
2023/03/07 08:22:42;;;;;;;1999.90;999.90;;;4.90;99.90;;;;;;5013452;28;20442;-69
2023/03/07 08:25:19;;;;;;;1999.90;999.90;;;5.00;99.90;;;;;;5013513;28;20408;-69
2023/03/07 08:27:45;;;;;;;1999.90;999.90;;;5.00;99.90;;;;;;5013429;28;20432;-69
2023/03/07 08:30:11;;;;;;;1999.90;999.90;;;5.00;99.90;;;;;;5013325;28;20857;-69
2023/03/07 08:32:36;;;;;;;1999.90;999.90;;;5.10;99.90;;;;;;5013052;28;20169;-69
2023/03/07 08:35:02;;;;;;;1999.90;999.90;;;5.10;99.90;;;;;;5012229;28;20416;-69
2023/03/07 08:37:28;;;;;;;1999.90;999.90;;;5.20;99.90;;;;;;5013249;28;20219;-69
2023/03/07 08:39:54;;;;;;;1999.90;999.90;;;5.10;99.90;;;;;;5013299;28;20396;-69
2023/03/07 08:42:19;;;;;;;1999.90;999.90;;;5.20;99.90;;;;;;5013002;28;20176;-69
2023/03/07 08:44:45;;;;;;;1999.90;999.90;;;5.30;99.90;;;;;;5013148;28;20673;-69
2023/03/07 08:47:12;;;;;;;1999.90;999.90;;;5.30;99.90;;;;;;5012966;28;20586;-69
2023/03/07 08:49:38;;;;;;;1999.90;999.90;;;5.40;99.90;;;;;;5013142;28;20181;-69
2023/03/07 08:52:04;;;;;;;1999.90;999.90;;;5.40;99.90;;;;;;5013034;28;20423;-68
2023/03/07 08:54:31;;;;;;;1999.90;999.90;;;5.50;99.90;;;;;;5013398;28;20457;-68
2023/03/07 08:56:57;;;;;;;1999.90;999.90;;;5.50;99.90;;;;;;5013054;28;20200;-68
2023/03/07 08:59:23;;;;;;;1999.90;999.90;;;5.50;99.90;;;;;;5013285;28;20439;-68
2023/03/07 09:01:48;;;;;;;1999.90;999.90;;;5.50;99.90;;;;;;5012720;28;20567;-68
2023/03/07 09:04:14;;;;;;;1999.90;999.90;;;5.60;99.90;;;;;;5013027;28;20177;-68
2023/03/07 09:06:40;;;;;;;1999.90;999.90;;;5.70;99.90;;;;;;5012747;28;20204;-69
2023/03/07 09:09:05;;;;;;;1999.90;999.90;;;5.70;99.90;;;;;;5012771;28;20165;-69
2023/03/07 09:11:31;;;;;;;1999.90;999.90;;;5.70;99.90;;;;;;5012658;28;20280;-69
2023/03/07 09:13:56;;;;;;;1999.90;999.90;;;5.70;99.90;;;;;;5012662;28;20161;-69
2023/03/07 09:16:22;;;;;;;1999.90;999.90;;;5.60;99.90;;;;;;5012459;28;20228;-69
2023/03/07 09:18:48;;;;;;;1999.90;999.90;;;5.60;99.90;;;;;;5012578;28;20175;-69
2023/03/07 09:21:14;;;;;;;1999.90;999.90;;;5.60;99.90;;;;;;5012448;28;20423;-69
2023/03/07 09:23:41;;;;;;;1999.90;999.90;;;5.60;99.90;;;;;;5012343;28;20466;-69
2023/03/07 09:26:09;;;;;;;1999.90;999.90;;;5.60;99.90;;;;;;5012447;28;20224;-69
2023/03/07 09:28:34;;;;;;;1999.90;999.90;;;5.60;99.90;;;;;;5012440;28;20450;-69
2023/03/07 09:31:08;;;;;;;1999.90;999.90;;;5.60;99.90;;;;;;5012305;28;20447;-69
2023/03/07 09:33:33;;;;;;;1999.90;999.90;;;5.60;99.90;;;;;;5012312;28;20215;-69
2023/03/07 09:36:02;;;;;;;1999.90;999.90;;;5.60;99.90;;;;;;5012158;28;20456;-69
2023/03/07 09:38:28;;;;;;;1999.90;999.90;;;5.60;99.90;;;;;;5012336;28;20252;-69
2023/03/07 09:40:54;;;;;;;1999.90;999.90;;;5.50;99.90;;;;;;5012247;28;20523;-69
2023/03/07 09:43:21;;;;;;;1999.90;999.90;;;5.60;99.90;;;;;;5012017;28;20180;-69
2023/03/07 09:46:04;;;;;;;1999.90;999.90;;;5.60;99.90;;;;;;5012089;28;20485;-69
2023/03/07 09:48:54;;;;;;;1999.90;999.90;;;5.50;99.90;;;;;;5010889;28;20447;-68
2023/03/07 09:51:36;;;;;;;1999.90;999.90;;;5.50;99.90;;;;;;5011137;28;21032;-67
2023/03/07 09:54:08;;;;;;;1999.90;999.90;;;5.60;99.90;;;;;;5023458;28;20430;-68
2023/03/07 09:57:01;;;;;;;1999.90;999.90;;;5.60;99.90;;;;;;5027387;28;20585;-69
2023/03/07 09:59:38;;;;;;;1999.90;999.90;;;5.50;99.90;;;;;;5028503;28;20497;-68
2023/03/07 10:02:27;;;;;;;1999.90;999.90;;;5.50;99.90;;;;;;5027653;28;20429;-68
2023/03/07 10:05:09;;;;;;;1999.90;999.90;;;5.60;99.90;;;;;;5027820;28;20422;-70
2023/03/07 10:07:35;;;;;;;1999.90;999.90;;;5.50;99.90;;;;;;5029468;28;20846;-69
2023/03/07 10:10:05;;;;;;;1999.90;999.90;;;5.40;99.90;;;;;;5028935;28;20414;-69
2023/03/07 10:13:16;;;;;;;1999.90;999.90;;;5.50;99.90;;;;;;5028885;28;20411;-67
2023/03/07 10:15:46;;;;;;;1999.90;999.90;;;5.40;99.90;;;;;;5027433;28;20466;-67
2023/03/07 10:18:27;;;;;;;1999.90;999.90;;;5.40;99.90;;;;;;5028579;28;20502;-68
2023/03/07 10:21:12;;;;;;;1999.90;999.90;;;5.30;99.90;;;;;;5029921;28;20482;-68
2023/03/07 10:24:10;;;;;;;1999.90;999.90;;;5.30;99.90;;;;;;5028672;28;20425;-68
2023/03/07 10:26:49;;;;;;;1999.90;999.90;;;5.30;99.90;;;;;;5028594;28;21106;-68
2023/03/07 10:29:25;;;;;;;1999.90;999.90;;;5.30;99.90;;;;;;5028258;28;20423;-69
2023/03/07 10:31:55;;;;;;;1999.90;999.90;;;5.30;99.90;;;;;;5028873;28;20435;-68
2023/03/07 10:34:25;;;;;;;1999.90;999.90;;;5.20;99.90;;;;;;5028435;28;20411;-68
2023/03/07 10:36:55;;;;;;;1999.90;999.90;;;5.20;99.90;;;;;;5009578;28;21010;-68
2023/03/07 10:39:29;;;;;;;1999.90;999.90;;;5.20;99.90;;;;;;5007601;28;20428;-68
2023/03/07 10:41:56;;;;;;;1999.90;999.90;;;5.20;99.90;;;;;;5007157;28;20427;-68
2023/03/07 10:44:22;;;;;;;1999.90;999.90;;;5.10;99.90;;;;;;5007310;28;20412;-68
2023/03/07 10:46:53;;;;;;;1999.90;999.90;;;5.10;99.90;;;;;;5007105;28;20450;-68
2023/03/07 10:49:25;;;;;;;1999.90;999.90;;;5.10;99.90;;;;;;5006572;28;20404;-68
2023/03/07 10:52:02;;;;;;;1999.90;999.90;;;5.10;99.90;;;;;;5006516;28;20424;-68
2023/03/07 10:54:38;;;;;;;1999.90;999.90;;;5.10;99.90;;;;;;5006718;28;20921;-68
2023/03/07 10:57:13;;;;;;;1999.90;999.90;;;5.10;99.90;;;;;;5006992;28;20459;-68
2023/03/07 10:59:42;;;;;;;1999.90;999.90;;;5.20;99.90;;;;;;5010032;28;20411;-68
2023/03/07 11:02:26;;;;;;;1999.90;999.90;;;5.20;99.90;;;;;;5010377;28;20443;-68
2023/03/07 11:04:52;;;;;;;1999.90;999.90;;;5.20;99.90;;;;;;5010298;28;20412;-68
2023/03/07 11:07:36;;;;;;;1999.90;999.90;;;5.20;99.90;;;;;;5009061;28;20420;-68
2023/03/07 11:10:31;;;;;;;1999.90;999.90;;;5.00;99.90;;;;;;5009875;28;20176;-69
2023/03/07 11:12:57;;;;;;;1999.90;999.90;;;5.20;99.90;;;;;;5009036;28;20412;-69
2023/03/07 11:15:23;;;;;;;1999.90;999.90;;;5.20;99.90;;;;;;5009571;28;20490;-69
2023/03/07 11:17:51;;;;;;;1999.90;999.90;;;5.20;99.90;;;;;;5009392;28;20268;-68
2023/03/07 11:20:50;;;;;;;1999.90;999.90;;;5.30;99.90;;;;;;5017631;28;20450;-67
2023/03/07 11:23:15;;;;;;;1999.90;999.90;;;5.30;99.90;;;;;;5030223;28;20419;-66
2023/03/07 11:25:41;;;;;;;1999.90;999.90;;;5.30;99.90;;;;;;5034104;28;20446;-67
2023/03/07 11:28:30;;;;;;;1999.90;999.90;;;5.30;99.90;;;;;;5035449;28;20194;-67
2023/03/07 11:31:14;;;;;;;1999.90;999.90;;;5.30;99.90;;;;;;5040967;28;20200;-67
2023/03/07 11:33:58;;;;;;;1999.90;999.90;;;5.30;99.90;;;;;;5050032;28;20453;-67
2023/03/07 11:36:30;;;;;;;1999.90;999.90;;;5.20;99.90;;;;;;5039176;28;20536;-67
2023/03/07 11:39:10;;;;;;;1999.90;999.90;;;5.20;99.90;;;;;;5042199;28;20415;-67
2023/03/07 11:41:38;;;;;;;1999.90;999.90;;;5.20;99.90;;;;;;5047266;28;20833;-66
2023/03/07 11:44:25;;;;;;;1999.90;999.90;;;5.20;99.90;;;;;;5040262;28;20406;-67
2023/03/07 11:47:10;;;;;;;1999.90;999.90;;;5.20;99.90;;;;;;5043341;28;20410;-67
2023/03/07 11:50:13;;;;;;;1999.90;999.90;;;5.20;99.90;;;;;;5039857;28;20413;-67
2023/03/07 11:53:02;;;;;;;1999.90;999.90;;;5.20;99.90;;;;;;5018731;28;20415;-67
2023/03/07 11:55:47;;;;;;;1999.90;999.90;;;5.30;99.90;;;;;;5037741;28;20533;-67
2023/03/07 11:58:31;;;;;;;1999.90;999.90;;;5.30;99.90;;;;;;5011956;28;20398;-67
2023/03/07 12:01:14;;;;;;;1999.90;999.90;;;5.30;99.90;;;;;;5019103;28;20429;-66
2023/03/07 12:03:43;;;;;;;1999.90;999.90;;;5.30;99.90;;;;;;5043857;28;20394;-67
2023/03/07 12:06:25;;;;;;;1999.90;999.90;;;5.40;99.90;;;;;;5052025;28;20410;-66
2023/03/07 12:08:57;;;;;;;1999.90;999.90;;;5.40;99.90;;;;;;5030693;28;20424;-67
2023/03/07 12:11:56;;;;;;;1999.90;999.90;;;5.30;99.90;;;;;;5013224;28;20447;-67
2023/03/07 12:14:33;;;;;;;1999.90;999.90;;;5.30;99.90;;;;;;5012976;28;20408;-66
2023/03/07 12:17:28;;;;;;;1999.90;999.90;;;5.30;99.90;;;;;;5013215;28;20537;-66